Sturgeon Falls, Canada
Current Conditions -  °F | °C
As of 9:25 AM on Saturday 25 Oct 2014 (Local Time) from CYYB Reporting Station
Light Rain Light Rain  
Wind Chill:   Ceiling: 800
Heat Index:   Visibility: 2mi
Dew Point:   Wind: 12mph
Humidity: 93%   Direction: 190°S
Pressure: 29.56"   Gusts: NA
Location:  46.37°N, 79.93°W
Report Text: CYYB 251325Z 19010KT 2SM -RA BR BKN008 OVC017 09/08 A2956 RMK SF7ST1 SLP016
Loading
Personal Weather Stations






























Interactive Weather Map
Tropical Storm Tracking
New forecast layout! Learn more

10-Day Weather Forecast

Advertisements
Track Severe Weather on mobile